sensor_id;sensor_type;location;lat;lon;timestamp;P1;durP1;ratioP1;P2;durP2;ratioP2
19113;SDS011;9689;51.052;13.772;2022-12-18T00:02:31;100.78;;;35.92;;
19113;SDS011;9689;51.052;13.772;2022-12-18T00:07:34;91.55;;;33.60;;
19113;SDS011;9689;51.052;13.772;2022-12-18T00:12:35;93.72;;;33.17;;
19113;SDS011;9689;51.052;13.772;2022-12-18T00:17:36;90.68;;;30.67;;
19113;SDS011;9689;51.052;13.772;2022-12-18T00:22:38;93.72;;;29.67;;
19113;SDS011;9689;51.052;13.772;2022-12-18T00:27:39;82.45;;;29.40;;
19113;SDS011;9689;51.052;13.772;2022-12-18T00:32:40;77.40;;;29.70;;
19113;SDS011;9689;51.052;13.772;2022-12-18T00:37:42;76.07;;;26.98;;
19113;SDS011;9689;51.052;13.772;2022-12-18T00:42:43;74.43;;;27.38;;
19113;SDS011;9689;51.052;13.772;2022-12-18T00:47:56;72.50;;;26.20;;
19113;SDS011;9689;51.052;13.772;2022-12-18T00:52:58;75.15;;;26.98;;
19113;SDS011;9689;51.052;13.772;2022-12-18T00:57:59;77.88;;;26.98;;
19113;SDS011;9689;51.052;13.772;2022-12-18T01:03:00;70.95;;;26.70;;
19113;SDS011;9689;51.052;13.772;2022-12-18T01:08:02;79.05;;;27.75;;
19113;SDS011;9689;51.052;13.772;2022-12-18T01:13:04;65.85;;;23.85;;
19113;SDS011;9689;51.052;13.772;2022-12-18T01:18:04;62.55;;;23.23;;
19113;SDS011;9689;51.052;13.772;2022-12-18T01:23:07;54.80;;;20.98;;
19113;SDS011;9689;51.052;13.772;2022-12-18T01:28:08;60.38;;;19.75;;
19113;SDS011;9689;51.052;13.772;2022-12-18T01:33:08;54.70;;;20.05;;
19113;SDS011;9689;51.052;13.772;2022-12-18T01:38:11;56.00;;;17.85;;
19113;SDS011;9689;51.052;13.772;2022-12-18T01:43:12;48.35;;;17.98;;
19113;SDS011;9689;51.052;13.772;2022-12-18T01:48:13;55.25;;;19.23;;
19113;SDS011;9689;51.052;13.772;2022-12-18T01:53:17;52.17;;;18.52;;
19113;SDS011;9689;51.052;13.772;2022-12-18T01:58:21;47.85;;;17.38;;
19113;SDS011;9689;51.052;13.772;2022-12-18T02:03:28;44.78;;;17.60;;
19113;SDS011;9689;51.052;13.772;2022-12-18T02:08:32;48.13;;;18.02;;
19113;SDS011;9689;51.052;13.772;2022-12-18T02:13:43;41.13;;;16.80;;
19113;SDS011;9689;51.052;13.772;2022-12-18T02:18:53;46.72;;;17.20;;
19113;SDS011;9689;51.052;13.772;2022-12-18T02:24:01;40.08;;;15.75;;
19113;SDS011;9689;51.052;13.772;2022-12-18T02:29:18;44.88;;;15.40;;
19113;SDS011;9689;51.052;13.772;2022-12-18T02:34:24;35.17;;;13.93;;
19113;SDS011;9689;51.052;13.772;2022-12-18T02:39:30;34.30;;;13.18;;
19113;SDS011;9689;51.052;13.772;2022-12-18T02:44:42;41.20;;;14.82;;
19113;SDS011;9689;51.052;13.772;2022-12-18T02:49:49;45.30;;;14.15;;
19113;SDS011;9689;51.052;13.772;2022-12-18T02:55:05;32.08;;;12.77;;
19113;SDS011;9689;51.052;13.772;2022-12-18T03:00:18;36.45;;;13.25;;
19113;SDS011;9689;51.052;13.772;2022-12-18T03:05:22;31.95;;;12.60;;
19113;SDS011;9689;51.052;13.772;2022-12-18T03:10:30;33.92;;;13.15;;
19113;SDS011;9689;51.052;13.772;2022-12-18T03:15:38;38.97;;;12.70;;
19113;SDS011;9689;51.052;13.772;2022-12-18T03:20:45;31.30;;;12.07;;
19113;SDS011;9689;51.052;13.772;2022-12-18T03:25:51;31.38;;;11.60;;
19113;SDS011;9689;51.052;13.772;2022-12-18T03:31:04;30.27;;;11.57;;
19113;SDS011;9689;51.052;13.772;2022-12-18T03:36:09;31.60;;;10.98;;
19113;SDS011;9689;51.052;13.772;2022-12-18T03:41:11;31.00;;;11.82;;
19113;SDS011;9689;51.052;13.772;2022-12-18T03:46:56;24.58;;;10.23;;
19113;SDS011;9689;51.052;13.772;2022-12-18T03:52:06;33.33;;;9.90;;
19113;SDS011;9689;51.052;13.772;2022-12-18T03:57:14;21.00;;;9.13;;
19113;SDS011;9689;51.052;13.772;2022-12-18T04:02:20;24.85;;;9.93;;
19113;SDS011;9689;51.052;13.772;2022-12-18T04:07:24;22.77;;;8.77;;
19113;SDS011;9689;51.052;13.772;2022-12-18T04:12:29;28.33;;;9.13;;
19113;SDS011;9689;51.052;13.772;2022-12-18T04:17:31;22.10;;;8.73;;
19113;SDS011;9689;51.052;13.772;2022-12-18T04:22:33;23.27;;;8.13;;
19113;SDS011;9689;51.052;13.772;2022-12-18T04:27:34;27.85;;;9.63;;
19113;SDS011;9689;51.052;13.772;2022-12-18T04:32:38;29.60;;;9.27;;
19113;SDS011;9689;51.052;13.772;2022-12-18T04:37:40;27.52;;;10.10;;
19113;SDS011;9689;51.052;13.772;2022-12-18T04:42:42;24.33;;;8.93;;
19113;SDS011;9689;51.052;13.772;2022-12-18T04:47:44;22.33;;;8.40;;
19113;SDS011;9689;51.052;13.772;2022-12-18T04:52:45;22.20;;;8.77;;
19113;SDS011;9689;51.052;13.772;2022-12-18T04:57:46;22.48;;;9.52;;
19113;SDS011;9689;51.052;13.772;2022-12-18T05:02:48;27.38;;;9.05;;
19113;SDS011;9689;51.052;13.772;2022-12-18T05:07:49;27.85;;;8.75;;
19113;SDS011;9689;51.052;13.772;2022-12-18T05:12:50;23.98;;;8.40;;
19113;SDS011;9689;51.052;13.772;2022-12-18T05:18:02;28.42;;;9.65;;
19113;SDS011;9689;51.052;13.772;2022-12-18T05:23:03;27.08;;;8.63;;
19113;SDS011;9689;51.052;13.772;2022-12-18T05:28:04;23.20;;;8.65;;
19113;SDS011;9689;51.052;13.772;2022-12-18T05:33:06;22.63;;;9.25;;
19113;SDS011;9689;51.052;13.772;2022-12-18T05:38:07;22.27;;;8.85;;
19113;SDS011;9689;51.052;13.772;2022-12-18T05:43:08;23.98;;;8.55;;
19113;SDS011;9689;51.052;13.772;2022-12-18T05:48:10;27.00;;;9.25;;
19113;SDS011;9689;51.052;13.772;2022-12-18T05:53:12;23.02;;;8.65;;
19113;SDS011;9689;51.052;13.772;2022-12-18T05:58:14;27.23;;;8.70;;
19113;SDS011;9689;51.052;13.772;2022-12-18T06:03:17;22.33;;;8.68;;
19113;SDS011;9689;51.052;13.772;2022-12-18T06:08:18;27.10;;;8.63;;
19113;SDS011;9689;51.052;13.772;2022-12-18T06:13:19;30.30;;;8.60;;
19113;SDS011;9689;51.052;13.772;2022-12-18T06:18:21;25.38;;;9.18;;
19113;SDS011;9689;51.052;13.772;2022-12-18T06:23:22;29.05;;;9.20;;
19113;SDS011;9689;51.052;13.772;2022-12-18T06:28:23;23.30;;;9.32;;
19113;SDS011;9689;51.052;13.772;2022-12-18T06:33:27;26.08;;;8.35;;
19113;SDS011;9689;51.052;13.772;2022-12-18T06:38:28;24.42;;;9.00;;
19113;SDS011;9689;51.052;13.772;2022-12-18T06:43:30;22.10;;;9.32;;
19113;SDS011;9689;51.052;13.772;2022-12-18T06:48:37;24.80;;;9.35;;
19113;SDS011;9689;51.052;13.772;2022-12-18T06:53:39;22.60;;;9.00;;
19113;SDS011;9689;51.052;13.772;2022-12-18T06:58:42;24.60;;;9.55;;
19113;SDS011;9689;51.052;13.772;2022-12-18T07:03:46;21.27;;;8.07;;
19113;SDS011;9689;51.052;13.772;2022-12-18T07:08:47;25.55;;;8.95;;
19113;SDS011;9689;51.052;13.772;2022-12-18T07:13:49;24.80;;;9.32;;
19113;SDS011;9689;51.052;13.772;2022-12-18T07:18:51;27.42;;;9.32;;
19113;SDS011;9689;51.052;13.772;2022-12-18T07:23:52;26.35;;;9.65;;
19113;SDS011;9689;51.052;13.772;2022-12-18T07:28:54;31.50;;;10.88;;
19113;SDS011;9689;51.052;13.772;2022-12-18T07:33:58;32.03;;;10.52;;
19113;SDS011;9689;51.052;13.772;2022-12-18T07:38:59;30.85;;;10.90;;
19113;SDS011;9689;51.052;13.772;2022-12-18T07:44:00;33.42;;;10.70;;
19113;SDS011;9689;51.052;13.772;2022-12-18T07:49:02;33.47;;;11.65;;
19113;SDS011;9689;51.052;13.772;2022-12-18T07:54:03;35.28;;;11.05;;
19113;SDS011;9689;51.052;13.772;2022-12-18T07:59:04;29.75;;;10.90;;
19113;SDS011;9689;51.052;13.772;2022-12-18T08:04:06;33.50;;;11.70;;
19113;SDS011;9689;51.052;13.772;2022-12-18T08:09:09;29.52;;;11.90;;
19113;SDS011;9689;51.052;13.772;2022-12-18T08:14:10;30.85;;;10.98;;
19113;SDS011;9689;51.052;13.772;2022-12-18T08:19:13;36.45;;;11.95;;
19113;SDS011;9689;51.052;13.772;2022-12-18T08:24:14;40.00;;;13.55;;
19113;SDS011;9689;51.052;13.772;2022-12-18T08:29:14;39.78;;;13.43;;
19113;SDS011;9689;51.052;13.772;2022-12-18T08:34:21;37.83;;;13.35;;
19113;SDS011;9689;51.052;13.772;2022-12-18T08:39:22;46.13;;;15.45;;
19113;SDS011;9689;51.052;13.772;2022-12-18T08:44:23;37.15;;;13.95;;
19113;SDS011;9689;51.052;13.772;2022-12-18T08:49:41;40.95;;;14.73;;
19113;SDS011;9689;51.052;13.772;2022-12-18T08:54:42;38.15;;;14.80;;
19113;SDS011;9689;51.052;13.772;2022-12-18T08:59:43;43.92;;;15.60;;
19113;SDS011;9689;51.052;13.772;2022-12-18T09:04:47;46.78;;;16.88;;
19113;SDS011;9689;51.052;13.772;2022-12-18T09:09:56;40.67;;;16.25;;
19113;SDS011;9689;51.052;13.772;2022-12-18T09:14:57;41.58;;;16.85;;
19113;SDS011;9689;51.052;13.772;2022-12-18T09:19:59;40.80;;;16.70;;
19113;SDS011;9689;51.052;13.772;2022-12-18T09:25:00;48.15;;;18.48;;
19113;SDS011;9689;51.052;13.772;2022-12-18T09:30:01;55.90;;;18.77;;
19113;SDS011;9689;51.052;13.772;2022-12-18T09:35:04;51.15;;;19.02;;
19113;SDS011;9689;51.052;13.772;2022-12-18T09:40:05;56.72;;;20.23;;
19113;SDS011;9689;51.052;13.772;2022-12-18T09:45:07;65.75;;;22.50;;
19113;SDS011;9689;51.052;13.772;2022-12-18T09:50:20;52.15;;;21.08;;
19113;SDS011;9689;51.052;13.772;2022-12-18T09:55:25;57.60;;;19.85;;
19113;SDS011;9689;51.052;13.772;2022-12-18T10:00:37;60.58;;;20.88;;
19113;SDS011;9689;51.052;13.772;2022-12-18T10:05:43;56.80;;;18.38;;
19113;SDS011;9689;51.052;13.772;2022-12-18T10:10:55;53.50;;;19.65;;
19113;SDS011;9689;51.052;13.772;2022-12-18T10:16:08;44.22;;;18.23;;
19113;SDS011;9689;51.052;13.772;2022-12-18T10:21:15;46.17;;;17.13;;
19113;SDS011;9689;51.052;13.772;2022-12-18T10:26:19;49.17;;;17.23;;
19113;SDS011;9689;51.052;13.772;2022-12-18T10:31:21;55.47;;;18.27;;
19113;SDS011;9689;51.052;13.772;2022-12-18T10:36:25;52.50;;;18.05;;
19113;SDS011;9689;51.052;13.772;2022-12-18T10:41:26;45.85;;;18.15;;
19113;SDS011;9689;51.052;13.772;2022-12-18T10:46:28;48.17;;;18.08;;
19113;SDS011;9689;51.052;13.772;2022-12-18T10:51:31;52.95;;;19.17;;
19113;SDS011;9689;51.052;13.772;2022-12-18T10:56:35;53.60;;;18.90;;
19113;SDS011;9689;51.052;13.772;2022-12-18T11:01:50;49.13;;;18.13;;
19113;SDS011;9689;51.052;13.772;2022-12-18T11:06:56;49.35;;;18.52;;
19113;SDS011;9689;51.052;13.772;2022-12-18T11:11:59;50.25;;;17.80;;
19113;SDS011;9689;51.052;13.772;2022-12-18T11:17:02;50.35;;;16.98;;
19113;SDS011;9689;51.052;13.772;2022-12-18T11:22:24;50.88;;;18.17;;
19113;SDS011;9689;51.052;13.772;2022-12-18T11:27:27;54.30;;;18.08;;
19113;SDS011;9689;51.052;13.772;2022-12-18T11:32:31;49.05;;;16.77;;
19113;SDS011;9689;51.052;13.772;2022-12-18T11:37:37;46.05;;;17.52;;
19113;SDS011;9689;51.052;13.772;2022-12-18T11:42:44;57.30;;;18.83;;
19113;SDS011;9689;51.052;13.772;2022-12-18T11:47:49;52.65;;;17.15;;
19113;SDS011;9689;51.052;13.772;2022-12-18T11:52:58;45.55;;;15.80;;
19113;SDS011;9689;51.052;13.772;2022-12-18T11:58:07;47.78;;;17.05;;
19113;SDS011;9689;51.052;13.772;2022-12-18T12:03:23;46.85;;;17.63;;
19113;SDS011;9689;51.052;13.772;2022-12-18T12:08:45;52.85;;;17.75;;
19113;SDS011;9689;51.052;13.772;2022-12-18T12:13:59;47.80;;;17.85;;
19113;SDS011;9689;51.052;13.772;2022-12-18T12:19:16;44.80;;;18.20;;
19113;SDS011;9689;51.052;13.772;2022-12-18T12:24:34;48.42;;;17.40;;
19113;SDS011;9689;51.052;13.772;2022-12-18T12:29:47;39.75;;;15.32;;
19113;SDS011;9689;51.052;13.772;2022-12-18T12:35:03;44.90;;;15.85;;
19113;SDS011;9689;51.052;13.772;2022-12-18T12:40:17;48.50;;;16.55;;
19113;SDS011;9689;51.052;13.772;2022-12-18T12:45:40;44.47;;;16.35;;
19113;SDS011;9689;51.052;13.772;2022-12-18T12:50:47;42.45;;;15.70;;
19113;SDS011;9689;51.052;13.772;2022-12-18T12:55:50;45.55;;;15.80;;
19113;SDS011;9689;51.052;13.772;2022-12-18T13:00:55;39.15;;;14.23;;
19113;SDS011;9689;51.052;13.772;2022-12-18T13:06:07;45.75;;;16.85;;
19113;SDS011;9689;51.052;13.772;2022-12-18T13:11:14;46.95;;;16.73;;
19113;SDS011;9689;51.052;13.772;2022-12-18T13:17:14;49.28;;;18.02;;
19113;SDS011;9689;51.052;13.772;2022-12-18T13:22:29;46.72;;;16.88;;
19113;SDS011;9689;51.052;13.772;2022-12-18T13:27:47;50.35;;;17.23;;
19113;SDS011;9689;51.052;13.772;2022-12-18T13:39:11;42.30;;;15.90;;
19113;SDS011;9689;51.052;13.772;2022-12-18T13:44:31;51.28;;;15.70;;
19113;SDS011;9689;51.052;13.772;2022-12-18T13:49:40;39.75;;;15.90;;
19113;SDS011;9689;51.052;13.772;2022-12-18T13:54:43;45.95;;;16.25;;
19113;SDS011;9689;51.052;13.772;2022-12-18T13:59:50;40.90;;;14.75;;
19113;SDS011;9689;51.052;13.772;2022-12-18T14:04:51;35.83;;;14.38;;
19113;SDS011;9689;51.052;13.772;2022-12-18T14:09:53;40.70;;;13.30;;
19113;SDS011;9689;51.052;13.772;2022-12-18T14:15:20;37.00;;;13.25;;
19113;SDS011;9689;51.052;13.772;2022-12-18T14:20:25;43.95;;;14.32;;
19113;SDS011;9689;51.052;13.772;2022-12-18T14:25:28;32.88;;;13.43;;
19113;SDS011;9689;51.052;13.772;2022-12-18T14:30:33;36.17;;;12.73;;
19113;SDS011;9689;51.052;13.772;2022-12-18T14:35:37;37.58;;;13.60;;
19113;SDS011;9689;51.052;13.772;2022-12-18T14:40:39;40.40;;;13.52;;
19113;SDS011;9689;51.052;13.772;2022-12-18T14:45:42;35.05;;;13.65;;
19113;SDS011;9689;51.052;13.772;2022-12-18T14:50:53;34.65;;;13.75;;
19113;SDS011;9689;51.052;13.772;2022-12-18T14:55:56;38.42;;;13.52;;
19113;SDS011;9689;51.052;13.772;2022-12-18T15:00:59;40.65;;;15.07;;
19113;SDS011;9689;51.052;13.772;2022-12-18T15:06:14;48.33;;;16.25;;
19113;SDS011;9689;51.052;13.772;2022-12-18T15:11:25;45.13;;;14.65;;
19113;SDS011;9689;51.052;13.772;2022-12-18T15:16:29;41.20;;;15.48;;
19113;SDS011;9689;51.052;13.772;2022-12-18T15:21:30;45.40;;;14.88;;
19113;SDS011;9689;51.052;13.772;2022-12-18T15:26:31;40.30;;;14.30;;
19113;SDS011;9689;51.052;13.772;2022-12-18T15:31:39;45.03;;;16.23;;
19113;SDS011;9689;51.052;13.772;2022-12-18T15:36:40;40.03;;;14.98;;
19113;SDS011;9689;51.052;13.772;2022-12-18T15:41:41;39.58;;;15.85;;
19113;SDS011;9689;51.052;13.772;2022-12-18T15:47:04;45.92;;;16.35;;
19113;SDS011;9689;51.052;13.772;2022-12-18T15:52:10;46.55;;;15.85;;
19113;SDS011;9689;51.052;13.772;2022-12-18T15:57:25;45.20;;;16.15;;
19113;SDS011;9689;51.052;13.772;2022-12-18T16:02:27;47.30;;;15.80;;
19113;SDS011;9689;51.052;13.772;2022-12-18T16:07:28;40.67;;;15.65;;
19113;SDS011;9689;51.052;13.772;2022-12-18T16:12:29;46.88;;;16.13;;
19113;SDS011;9689;51.052;13.772;2022-12-18T16:17:31;44.15;;;15.90;;
19113;SDS011;9689;51.052;13.772;2022-12-18T16:22:32;48.22;;;17.45;;
19113;SDS011;9689;51.052;13.772;2022-12-18T16:27:33;45.85;;;16.75;;
19113;SDS011;9689;51.052;13.772;2022-12-18T16:32:35;44.15;;;16.52;;
19113;SDS011;9689;51.052;13.772;2022-12-18T16:37:36;50.30;;;16.83;;
19113;SDS011;9689;51.052;13.772;2022-12-18T16:42:38;44.35;;;17.02;;
19113;SDS011;9689;51.052;13.772;2022-12-18T16:47:42;39.90;;;13.90;;
19113;SDS011;9689;51.052;13.772;2022-12-18T16:52:43;48.45;;;15.73;;
19113;SDS011;9689;51.052;13.772;2022-12-18T16:57:44;51.05;;;16.17;;
19113;SDS011;9689;51.052;13.772;2022-12-18T17:02:46;40.92;;;15.27;;
19113;SDS011;9689;51.052;13.772;2022-12-18T17:07:47;41.15;;;15.85;;
19113;SDS011;9689;51.052;13.772;2022-12-18T17:12:49;43.55;;;15.00;;
19113;SDS011;9689;51.052;13.772;2022-12-18T17:17:52;42.92;;;15.77;;
19113;SDS011;9689;51.052;13.772;2022-12-18T17:22:54;42.97;;;15.85;;
19113;SDS011;9689;51.052;13.772;2022-12-18T17:27:56;46.08;;;15.20;;
19113;SDS011;9689;51.052;13.772;2022-12-18T17:32:58;47.67;;;17.58;;
19113;SDS011;9689;51.052;13.772;2022-12-18T17:37:59;41.13;;;15.35;;
19113;SDS011;9689;51.052;13.772;2022-12-18T17:43:00;49.90;;;16.33;;
19113;SDS011;9689;51.052;13.772;2022-12-18T17:48:02;41.00;;;16.17;;
19113;SDS011;9689;51.052;13.772;2022-12-18T17:53:03;50.28;;;16.20;;
19113;SDS011;9689;51.052;13.772;2022-12-18T17:58:04;48.42;;;15.50;;
19113;SDS011;9689;51.052;13.772;2022-12-18T18:03:06;46.55;;;15.45;;
19113;SDS011;9689;51.052;13.772;2022-12-18T18:08:08;47.55;;;16.25;;
19113;SDS011;9689;51.052;13.772;2022-12-18T18:18:46;45.70;;;15.25;;
19113;SDS011;9689;51.052;13.772;2022-12-18T18:23:47;37.20;;;13.88;;
19113;SDS011;9689;51.052;13.772;2022-12-18T18:28:52;37.72;;;14.18;;
19113;SDS011;9689;51.052;13.772;2022-12-18T18:33:55;40.28;;;14.65;;
19113;SDS011;9689;51.052;13.772;2022-12-18T18:38:57;38.88;;;13.35;;
19113;SDS011;9689;51.052;13.772;2022-12-18T18:43:59;37.58;;;13.05;;
19113;SDS011;9689;51.052;13.772;2022-12-18T18:49:01;33.25;;;13.07;;
19113;SDS011;9689;51.052;13.772;2022-12-18T18:54:03;40.75;;;13.68;;
19113;SDS011;9689;51.052;13.772;2022-12-18T18:59:04;38.58;;;13.88;;
19113;SDS011;9689;51.052;13.772;2022-12-18T19:04:07;42.22;;;14.63;;
19113;SDS011;9689;51.052;13.772;2022-12-18T19:09:08;36.15;;;14.20;;
19113;SDS011;9689;51.052;13.772;2022-12-18T19:14:10;35.97;;;14.18;;
19113;SDS011;9689;51.052;13.772;2022-12-18T19:19:14;43.03;;;14.43;;
19113;SDS011;9689;51.052;13.772;2022-12-18T19:24:21;39.25;;;14.55;;
19113;SDS011;9689;51.052;13.772;2022-12-18T19:29:22;40.20;;;15.07;;
19113;SDS011;9689;51.052;13.772;2022-12-18T19:34:24;42.72;;;15.32;;
19113;SDS011;9689;51.052;13.772;2022-12-18T19:39:25;39.25;;;13.95;;
19113;SDS011;9689;51.052;13.772;2022-12-18T19:44:26;42.47;;;15.40;;
19113;SDS011;9689;51.052;13.772;2022-12-18T19:49:29;43.95;;;15.57;;
19113;SDS011;9689;51.052;13.772;2022-12-18T19:54:31;40.58;;;15.35;;
19113;SDS011;9689;51.052;13.772;2022-12-18T19:59:31;40.30;;;14.40;;
19113;SDS011;9689;51.052;13.772;2022-12-18T20:04:34;42.85;;;14.95;;
19113;SDS011;9689;51.052;13.772;2022-12-18T20:14:37;40.10;;;14.23;;
19113;SDS011;9689;51.052;13.772;2022-12-18T20:19:39;45.03;;;15.65;;
19113;SDS011;9689;51.052;13.772;2022-12-18T20:24:40;42.30;;;14.00;;
19113;SDS011;9689;51.052;13.772;2022-12-18T20:29:41;38.53;;;13.50;;
19113;SDS011;9689;51.052;13.772;2022-12-18T20:34:46;40.35;;;13.75;;
19113;SDS011;9689;51.052;13.772;2022-12-18T20:39:48;36.55;;;13.73;;
19113;SDS011;9689;51.052;13.772;2022-12-18T20:44:50;34.15;;;13.93;;
19113;SDS011;9689;51.052;13.772;2022-12-18T20:49:52;45.03;;;13.82;;
19113;SDS011;9689;51.052;13.772;2022-12-18T20:54:53;41.28;;;14.68;;
19113;SDS011;9689;51.052;13.772;2022-12-18T20:59:55;37.70;;;12.88;;
19113;SDS011;9689;51.052;13.772;2022-12-18T21:04:58;40.25;;;12.93;;
19113;SDS011;9689;51.052;13.772;2022-12-18T21:09:58;42.25;;;14.98;;
19113;SDS011;9689;51.052;13.772;2022-12-18T21:15:00;44.17;;;13.80;;
19113;SDS011;9689;51.052;13.772;2022-12-18T21:20:03;37.97;;;14.93;;
19113;SDS011;9689;51.052;13.772;2022-12-18T21:25:06;44.65;;;14.70;;
19113;SDS011;9689;51.052;13.772;2022-12-18T21:30:08;38.35;;;15.32;;
19113;SDS011;9689;51.052;13.772;2022-12-18T21:35:11;40.55;;;14.60;;
19113;SDS011;9689;51.052;13.772;2022-12-18T21:40:13;48.75;;;15.80;;
19113;SDS011;9689;51.052;13.772;2022-12-18T21:45:14;43.08;;;15.35;;
19113;SDS011;9689;51.052;13.772;2022-12-18T21:50:16;48.05;;;16.23;;
19113;SDS011;9689;51.052;13.772;2022-12-18T21:55:17;50.45;;;16.98;;
19113;SDS011;9689;51.052;13.772;2022-12-18T22:00:18;51.22;;;17.90;;
19113;SDS011;9689;51.052;13.772;2022-12-18T22:05:21;54.70;;;17.70;;
19113;SDS011;9689;51.052;13.772;2022-12-18T22:10:21;54.67;;;19.13;;
19113;SDS011;9689;51.052;13.772;2022-12-18T22:15:22;51.80;;;18.75;;
19113;SDS011;9689;51.052;13.772;2022-12-18T22:20:24;50.70;;;18.42;;
19113;SDS011;9689;51.052;13.772;2022-12-18T22:25:25;55.05;;;19.17;;
19113;SDS011;9689;51.052;13.772;2022-12-18T22:30:27;55.05;;;21.33;;
19113;SDS011;9689;51.052;13.772;2022-12-18T22:35:29;66.05;;;21.23;;
19113;SDS011;9689;51.052;13.772;2022-12-18T22:40:30;48.30;;;19.25;;
19113;SDS011;9689;51.052;13.772;2022-12-18T22:45:31;49.83;;;19.33;;
19113;SDS011;9689;51.052;13.772;2022-12-18T22:50:38;50.80;;;19.42;;
19113;SDS011;9689;51.052;13.772;2022-12-18T22:55:39;53.72;;;19.67;;
19113;SDS011;9689;51.052;13.772;2022-12-18T23:00:40;50.58;;;19.35;;
19113;SDS011;9689;51.052;13.772;2022-12-18T23:05:42;54.20;;;20.40;;
19113;SDS011;9689;51.052;13.772;2022-12-18T23:10:43;48.08;;;18.77;;
19113;SDS011;9689;51.052;13.772;2022-12-18T23:15:44;51.28;;;17.55;;
19113;SDS011;9689;51.052;13.772;2022-12-18T23:20:47;49.22;;;19.92;;
19113;SDS011;9689;51.052;13.772;2022-12-18T23:25:48;55.38;;;20.05;;
19113;SDS011;9689;51.052;13.772;2022-12-18T23:30:49;51.00;;;19.67;;
19113;SDS011;9689;51.052;13.772;2022-12-18T23:35:51;54.67;;;20.00;;
19113;SDS011;9689;51.052;13.772;2022-12-18T23:40:56;55.05;;;20.27;;
19113;SDS011;9689;51.052;13.772;2022-12-18T23:45:58;53.72;;;20.05;;
19113;SDS011;9689;51.052;13.772;2022-12-18T23:51:04;55.97;;;19.85;;
19113;SDS011;9689;51.052;13.772;2022-12-18T23:56:06;48.72;;;18.83;;
